Time;durP1;ratioP1;P1;durP2;ratioP2;P2;SDS_P1;SDS_P2;PMS_P1;PMS_P2;Temp;Humidity;BMP_temperature;BMP_pressure;BME280_temperature;BME280_humidity;BME280_pressure;Samples;Min_cycle;Max_cycle;Signal;HPM_P1;HPM_P2
2024/01/04 00:00:41;;;;;;;4.30;2.20;;;9.20;1.00;;;;;;5056825;28;20184;-83
2024/01/04 00:03:06;;;;;;;10.03;3.60;;;9.30;1.00;;;;;;5054849;28;20460;-83
2024/01/04 00:05:32;;;;;;;4.33;1.80;;;9.30;1.00;;;;;;5053071;28;20263;-85
2024/01/04 00:07:57;;;;;;;3.23;2.40;;;9.30;1.00;;;;;;5052625;28;20265;-86
2024/01/04 00:10:23;;;;;;;7.97;2.20;;;9.30;1.00;;;;;;5048651;28;20208;-85
2024/01/04 00:12:49;;;;;;;2.90;1.80;;;9.30;1.00;;;;;;5054794;28;20232;-85
2024/01/04 00:15:14;;;;;;;7.33;2.23;;;9.30;1.00;;;;;;5050650;28;20206;-87
2024/01/04 00:17:40;;;;;;;6.73;2.97;;;9.30;1.00;;;;;;5041756;28;20519;-87
2024/01/04 00:20:06;;;;;;;10.17;2.43;;;9.30;1.00;;;;;;5051908;28;20454;-87
2024/01/04 00:22:32;;;;;;;8.53;2.60;;;9.30;1.00;;;;;;5032995;28;20228;-86
2024/01/04 00:24:57;;;;;;;6.83;2.70;;;9.30;1.00;;;;;;5049627;28;20511;-86
2024/01/04 00:27:23;;;;;;;6.00;2.57;;;9.30;1.00;;;;;;5033657;28;20190;-86
2024/01/04 00:29:48;;;;;;;4.83;3.30;;;9.30;1.00;;;;;;5050822;28;20272;-84
2024/01/04 00:32:14;;;;;;;10.00;3.20;;;9.30;1.00;;;;;;5026909;28;20767;-84
2024/01/04 00:34:39;;;;;;;8.13;4.10;;;9.20;1.00;;;;;;5049279;28;20198;-85
2024/01/04 00:37:05;;;;;;;7.80;4.07;;;9.30;5.30;;;;;;5056678;28;20182;-87
2024/01/04 00:39:30;;;;;;;9.63;4.70;;;9.20;8.90;;;;;;5035503;28;20658;-87
2024/01/04 00:41:57;;;;;;;5.40;3.23;;;9.30;14.90;;;;;;5043178;28;20212;-85
2024/01/04 00:44:23;;;;;;;8.70;3.47;;;9.20;14.90;;;;;;5055821;28;20212;-84
2024/01/04 00:46:49;;;;;;;5.93;3.43;;;9.20;16.60;;;;;;5055906;28;20865;-84
2024/01/04 00:49:14;;;;;;;18.13;4.63;;;9.20;14.70;;;;;;5041954;28;20218;-87
2024/01/04 00:51:41;;;;;;;9.40;3.97;;;9.20;12.40;;;;;;5056687;28;20467;-89
2024/01/04 00:54:06;;;;;;;6.23;3.50;;;9.30;10.80;;;;;;5059030;28;20178;-85
2024/01/04 00:56:33;;;;;;;16.07;4.30;;;9.20;9.00;;;;;;5056647;28;20539;-85
2024/01/04 00:59:02;;;;;;;9.73;3.23;;;9.20;9.70;;;;;;5049279;28;20178;-86
2024/01/04 01:01:30;;;;;;;14.00;4.53;;;9.20;8.60;;;;;;5055351;28;20530;-84
2024/01/04 01:03:57;;;;;;;7.23;3.17;;;9.30;6.70;;;;;;5040486;28;20444;-85
2024/01/04 01:06:23;;;;;;;7.63;4.63;;;9.30;4.80;;;;;;5036297;28;20556;-87
2024/01/04 01:08:48;;;;;;;12.47;3.73;;;9.30;4.90;;;;;;5052168;28;20456;-86
2024/01/04 01:11:14;;;;;;;6.10;3.10;;;9.30;6.80;;;;;;5054410;28;20220;-86
2024/01/04 01:13:39;;;;;;;9.83;3.90;;;9.30;7.80;;;;;;5055090;28;20301;-87
2024/01/04 01:16:05;;;;;;;13.30;3.60;;;9.30;9.10;;;;;;5058599;28;20231;-86
2024/01/04 01:18:31;;;;;;;9.83;4.20;;;9.30;9.80;;;;;;5040315;28;20179;-87
2024/01/04 01:20:57;;;;;;;10.27;4.20;;;9.30;9.30;;;;;;5042159;28;20193;-86
2024/01/04 01:23:23;;;;;;;8.37;4.47;;;9.30;10.90;;;;;;5064149;28;20217;-85
2024/01/04 01:25:48;;;;;;;13.40;4.50;;;9.30;9.10;;;;;;5036082;28;20442;-84
2024/01/04 01:28:14;;;;;;;5.30;4.80;;;9.30;10.90;;;;;;5052182;28;20186;-86
2024/01/04 01:30:39;;;;;;;8.70;3.90;;;9.30;11.80;;;;;;5036135;28;20205;-84
2024/01/04 01:33:05;;;;;;;6.27;3.87;;;9.30;12.10;;;;;;5051958;28;20218;-84
2024/01/04 01:35:31;;;;;;;6.37;4.03;;;9.30;10.50;;;;;;5046961;28;20225;-86
2024/01/04 01:37:56;;;;;;;8.93;3.97;;;9.30;9.70;;;;;;5046127;28;20437;-83
2024/01/04 01:40:22;;;;;;;8.67;4.10;;;9.40;6.40;;;;;;5047133;28;20260;-85
2024/01/04 01:42:48;;;;;;;9.30;4.03;;;9.40;3.90;;;;;;5050115;28;20210;-84
2024/01/04 01:45:17;;;;;;;8.60;4.60;;;9.40;1.00;;;;;;5049130;28;20664;-84
2024/01/04 01:47:46;;;;;;;6.43;3.93;;;9.40;1.00;;;;;;5050993;28;20436;-82
2024/01/04 01:50:12;;;;;;;7.40;3.80;;;9.40;1.00;;;;;;5030249;28;20466;-84
2024/01/04 01:52:38;;;;;;;9.70;3.40;;;9.40;1.00;;;;;;5044434;28;20460;-83
2024/01/04 01:55:04;;;;;;;8.40;3.10;;;9.40;1.00;;;;;;5048555;28;20449;-84
2024/01/04 01:57:33;;;;;;;9.97;3.70;;;9.40;1.00;;;;;;5044298;28;20437;-84
2024/01/04 02:00:00;;;;;;;12.17;3.57;;;9.40;1.00;;;;;;5033024;28;20458;-86
2024/01/04 02:02:26;;;;;;;6.77;3.77;;;9.40;1.00;;;;;;5034238;28;20467;-84
2024/01/04 02:04:52;;;;;;;10.40;4.03;;;9.40;1.00;;;;;;5052857;28;20428;-85
2024/01/04 02:07:18;;;;;;;7.03;3.53;;;9.40;1.00;;;;;;5040735;28;20432;-84
2024/01/04 02:09:43;;;;;;;6.50;4.00;;;9.40;1.00;;;;;;5029643;28;20819;-85
2024/01/04 02:12:13;;;;;;;8.77;4.17;;;9.40;1.00;;;;;;5037383;28;22050;-84
2024/01/04 02:14:39;;;;;;;11.07;3.27;;;9.40;1.00;;;;;;5045819;28;20175;-84
2024/01/04 02:17:05;;;;;;;10.20;4.03;;;9.40;1.00;;;;;;5051709;28;20437;-84
2024/01/04 02:19:31;;;;;;;5.70;3.03;;;9.50;1.00;;;;;;5059309;28;20270;-85
2024/01/04 02:21:57;;;;;;;7.97;3.20;;;9.40;1.00;;;;;;5041667;28;21610;-85
2024/01/04 02:24:22;;;;;;;7.87;3.80;;;9.50;1.00;;;;;;5048817;28;20436;-85
2024/01/04 02:26:48;;;;;;;10.20;4.23;;;9.50;1.00;;;;;;5049204;28;20177;-85
2024/01/04 02:29:13;;;;;;;6.20;3.80;;;9.50;1.00;;;;;;5031628;28;20358;-88
2024/01/04 02:31:39;;;;;;;9.00;3.73;;;9.50;1.00;;;;;;5050237;28;20253;-82
2024/01/04 02:34:04;;;;;;;10.83;4.73;;;9.50;1.00;;;;;;5049907;28;20184;-86
2024/01/04 02:36:31;;;;;;;7.03;3.53;;;9.50;1.00;;;;;;5049498;28;20178;-84
2024/01/04 02:38:58;;;;;;;8.13;4.23;;;9.50;1.00;;;;;;5042506;28;20174;-84
2024/01/04 02:41:25;;;;;;;14.00;4.17;;;9.50;1.00;;;;;;5044175;28;20468;-85
2024/01/04 02:43:50;;;;;;;7.13;4.27;;;9.50;1.00;;;;;;5039345;28;20499;-83
2024/01/04 02:46:16;;;;;;;15.97;5.50;;;9.50;1.00;;;;;;5047779;28;20436;-84
2024/01/04 02:48:41;;;;;;;7.03;4.40;;;9.50;1.00;;;;;;5045022;28;20179;-85
2024/01/04 02:51:07;;;;;;;10.03;5.03;;;9.50;1.00;;;;;;5050591;28;20796;-86
2024/01/04 02:53:33;;;;;;;9.20;4.20;;;9.50;1.00;;;;;;5049873;28;20263;-87
2024/01/04 02:55:58;;;;;;;8.03;4.20;;;9.50;1.00;;;;;;5038590;28;20523;-85
2024/01/04 02:58:25;;;;;;;12.47;4.50;;;9.50;1.00;;;;;;5051077;28;20707;-86
2024/01/04 03:00:51;;;;;;;4.37;3.73;;;9.50;1.00;;;;;;5052549;28;20183;-87
2024/01/04 03:03:17;;;;;;;10.17;4.70;;;9.50;1.00;;;;;;5051310;28;20466;-87
2024/01/04 03:05:42;;;;;;;7.60;4.90;;;9.40;1.00;;;;;;5045430;28;20187;-85
2024/01/04 03:08:08;;;;;;;8.00;4.47;;;9.40;1.00;;;;;;5049437;28;20200;-88
2024/01/04 03:10:35;;;;;;;14.87;4.97;;;9.30;1.00;;;;;;5048531;28;20205;-83
2024/01/04 03:13:00;;;;;;;8.07;4.50;;;9.30;1.00;;;;;;5031519;28;20205;-84
2024/01/04 03:15:26;;;;;;;10.67;5.10;;;9.30;1.00;;;;;;5050881;28;20444;-84
2024/01/04 03:17:51;;;;;;;13.43;4.60;;;9.20;1.00;;;;;;5052861;28;20178;-87
2024/01/04 03:20:17;;;;;;;9.10;4.60;;;9.20;1.00;;;;;;5053934;28;20182;-88
2024/01/04 03:22:42;;;;;;;12.50;5.00;;;9.10;1.00;;;;;;5051274;28;20220;-84
2024/01/04 03:25:09;;;;;;;8.90;5.23;;;9.10;1.00;;;;;;5035346;28;20198;-85
2024/01/04 03:27:35;;;;;;;7.67;4.30;;;9.10;1.00;;;;;;5051129;28;20181;-84
2024/01/04 03:30:00;;;;;;;10.40;4.23;;;9.10;1.00;;;;;;5053356;28;21006;-84
2024/01/04 03:32:26;;;;;;;8.37;4.23;;;9.10;1.00;;;;;;5025521;28;20300;-85
2024/01/04 03:34:51;;;;;;;8.37;3.47;;;9.10;1.00;;;;;;5032294;28;20177;-85
2024/01/04 03:37:17;;;;;;;7.47;3.40;;;9.10;1.00;;;;;;5045881;28;20191;-82
2024/01/04 03:39:42;;;;;;;7.83;4.23;;;9.20;1.00;;;;;;5044339;28;20617;-85
2024/01/04 03:42:08;;;;;;;8.00;4.73;;;9.20;1.00;;;;;;5047603;28;20217;-86
2024/01/04 03:44:34;;;;;;;8.30;4.30;;;9.20;1.00;;;;;;5047620;28;20269;-86
2024/01/04 03:46:59;;;;;;;19.80;4.87;;;9.20;1.00;;;;;;5047132;28;20185;-86
2024/01/04 03:49:25;;;;;;;7.33;4.20;;;9.30;1.00;;;;;;5032223;28;20245;-84
2024/01/04 03:51:51;;;;;;;11.03;4.37;;;9.20;1.00;;;;;;5049603;28;20557;-87
2024/01/04 03:54:16;;;;;;;8.60;4.17;;;9.20;1.00;;;;;;5054109;28;20186;-87
2024/01/04 03:56:42;;;;;;;13.03;5.60;;;9.20;1.00;;;;;;5050328;28;20449;-88
2024/01/04 03:59:07;;;;;;;14.07;5.00;;;9.20;1.00;;;;;;5049544;28;20534;-86
2024/01/04 04:01:33;;;;;;;14.50;5.33;;;9.30;1.00;;;;;;5052372;28;20297;-87
2024/01/04 04:03:58;;;;;;;13.33;5.77;;;9.30;1.00;;;;;;5050876;28;20189;-86
2024/01/04 04:06:24;;;;;;;8.40;5.13;;;9.30;1.00;;;;;;5053443;28;20196;-84
2024/01/04 04:08:49;;;;;;;11.40;5.90;;;9.30;1.00;;;;;;5045312;28;20456;-84
2024/01/04 04:11:19;;;;;;;10.53;4.93;;;9.30;1.00;;;;;;5030428;28;20229;-83
2024/01/04 04:13:45;;;;;;;14.43;5.60;;;9.30;1.00;;;;;;5044957;28;20186;-84
2024/01/04 04:16:10;;;;;;;13.40;5.70;;;9.20;1.00;;;;;;5052183;28;20426;-84
2024/01/04 04:18:36;;;;;;;10.47;5.63;;;9.30;1.00;;;;;;5044374;28;20523;-83
2024/01/04 04:21:01;;;;;;;11.07;6.20;;;9.30;1.00;;;;;;5047632;28;20186;-83
2024/01/04 04:23:27;;;;;;;11.97;6.20;;;9.30;1.00;;;;;;5043524;28;20210;-85
2024/01/04 04:25:53;;;;;;;10.73;5.87;;;9.30;1.00;;;;;;5033439;28;20201;-85
2024/01/04 04:28:18;;;;;;;12.73;6.30;;;9.30;1.00;;;;;;5032769;28;20945;-84
2024/01/04 04:30:44;;;;;;;12.73;6.10;;;9.30;1.00;;;;;;5049063;28;20212;-85
2024/01/04 04:33:09;;;;;;;10.20;5.57;;;9.30;1.00;;;;;;5051080;28;20206;-82
2024/01/04 04:35:35;;;;;;;8.93;4.70;;;9.30;1.00;;;;;;5045130;28;20182;-86
2024/01/04 04:38:01;;;;;;;11.60;5.97;;;9.40;1.00;;;;;;5046201;28;20238;-86
2024/01/04 04:40:26;;;;;;;12.70;6.00;;;9.30;1.00;;;;;;5049128;28;20198;-85
2024/01/04 04:42:52;;;;;;;11.63;5.77;;;9.30;1.00;;;;;;5047391;28;20229;-84
2024/01/04 04:45:17;;;;;;;11.80;5.20;;;9.30;1.00;;;;;;5050376;28;20194;-88
2024/01/04 04:47:43;;;;;;;6.33;3.67;;;9.30;1.00;;;;;;5028740;28;20182;-85
2024/01/04 04:50:09;;;;;;;6.67;2.87;;;9.30;1.00;;;;;;5045670;28;20210;-88
2024/01/04 04:52:34;;;;;;;6.13;2.60;;;9.30;1.00;;;;;;5043690;28;20461;-85
2024/01/04 04:55:00;;;;;;;5.20;2.17;;;9.30;1.00;;;;;;5042398;28;20265;-86
2024/01/04 04:57:25;;;;;;;3.20;2.00;;;9.30;1.00;;;;;;5029659;28;20600;-85
2024/01/04 04:59:51;;;;;;;3.97;1.83;;;9.20;1.00;;;;;;5043680;23;20245;-83
2024/01/04 05:02:16;;;;;;;3.10;1.90;;;9.20;1.00;;;;;;5042091;28;20578;-83
2024/01/04 05:04:43;;;;;;;3.47;1.67;;;9.20;1.00;;;;;;5041787;28;20181;-83
2024/01/04 05:07:09;;;;;;;3.20;1.97;;;9.10;1.00;;;;;;5045194;28;20644;-84
2024/01/04 05:09:34;;;;;;;3.23;2.00;;;9.10;1.00;;;;;;5033922;28;20595;-85
2024/01/04 05:12:00;;;;;;;3.37;1.93;;;9.10;1.00;;;;;;5018328;28;20684;-84
2024/01/04 05:14:25;;;;;;;4.40;2.27;;;9.10;1.00;;;;;;5012453;28;20257;-84
2024/01/04 05:16:51;;;;;;;6.50;2.50;;;9.10;1.00;;;;;;5014207;28;21836;-84
2024/01/04 05:19:16;;;;;;;3.60;2.23;;;9.10;1.00;;;;;;5014673;28;20214;-86
2024/01/04 05:21:42;;;;;;;3.23;1.87;;;9.00;1.00;;;;;;5015095;28;20191;-84
2024/01/04 05:24:07;;;;;;;2.00;1.50;;;9.00;1.00;;;;;;5009022;28;20213;-85
2024/01/04 05:26:33;;;;;;;4.83;1.90;;;9.00;1.00;;;;;;5011713;28;20253;-87
2024/01/04 05:28:58;;;;;;;8.00;2.17;;;8.90;1.00;;;;;;5014119;28;20243;-85
2024/01/04 05:31:25;;;;;;;5.03;1.83;;;8.90;1.00;;;;;;5011263;28;20617;-85
2024/01/04 05:33:51;;;;;;;3.83;1.40;;;8.80;1.00;;;;;;5014545;28;20249;-85
2024/01/04 05:36:17;;;;;;;3.10;1.93;;;8.80;1.00;;;;;;5014413;28;20483;-85
2024/01/04 05:38:42;;;;;;;4.63;1.90;;;8.80;1.00;;;;;;5020492;28;20183;-84
2024/01/04 05:41:08;;;;;;;3.63;2.37;;;8.80;1.00;;;;;;5013227;28;20282;-85
2024/01/04 05:43:34;;;;;;;2.80;2.10;;;8.80;1.00;;;;;;5012459;28;20321;-84
2024/01/04 05:46:03;;;;;;;3.00;2.23;;;8.80;1.00;;;;;;5015019;28;20180;-84
2024/01/04 05:48:29;;;;;;;5.53;3.77;;;8.80;1.00;;;;;;5011892;28;20187;-84
2024/01/04 05:50:54;;;;;;;3.60;2.83;;;8.80;1.00;;;;;;5013749;28;20460;-84
2024/01/04 05:53:20;;;;;;;7.63;4.17;;;8.80;1.00;;;;;;5011614;28;20224;-84
2024/01/04 05:55:45;;;;;;;5.73;3.70;;;8.80;1.00;;;;;;5015002;28;20187;-84
2024/01/04 05:58:11;;;;;;;6.93;3.10;;;8.80;1.00;;;;;;5013485;28;20303;-85
2024/01/04 06:00:36;;;;;;;6.53;3.23;;;8.80;1.00;;;;;;5013321;28;20214;-84
2024/01/04 06:03:02;;;;;;;3.97;2.73;;;8.80;1.00;;;;;;5020004;28;20803;-84
2024/01/04 06:05:27;;;;;;;3.77;2.27;;;8.80;1.00;;;;;;5012788;28;20190;-85
2024/01/04 06:07:53;;;;;;;3.67;2.40;;;8.80;1.00;;;;;;5013027;28;20580;-85
2024/01/04 06:10:18;;;;;;;4.83;2.27;;;8.80;1.00;;;;;;5014533;28;20221;-85
2024/01/04 06:12:44;;;;;;;6.53;2.70;;;8.80;1.00;;;;;;5019091;28;20332;-84
2024/01/04 06:15:10;;;;;;;3.70;1.90;;;8.80;1.00;;;;;;5014000;28;20614;-84
2024/01/04 06:17:35;;;;;;;2.13;1.47;;;8.70;1.00;;;;;;5013075;28;20684;-85
2024/01/04 06:20:01;;;;;;;2.20;1.83;;;8.70;1.00;;;;;;5008246;28;20489;-84
2024/01/04 06:22:26;;;;;;;1.43;1.20;;;8.70;1.00;;;;;;5010885;28;20171;-84
2024/01/04 06:24:52;;;;;;;1.83;1.30;;;8.70;1.00;;;;;;5016725;28;20572;-85
2024/01/04 06:27:18;;;;;;;2.53;1.27;;;8.70;1.00;;;;;;5015227;28;20187;-84
2024/01/04 06:29:44;;;;;;;2.70;1.20;;;8.70;1.00;;;;;;5010573;28;20206;-85
2024/01/04 06:32:10;;;;;;;2.27;1.70;;;8.70;1.00;;;;;;5012774;28;20233;-85
2024/01/04 06:34:35;;;;;;;2.20;1.97;;;8.70;1.00;;;;;;5009306;28;20434;-85
2024/01/04 06:37:01;;;;;;;3.30;1.70;;;8.70;1.00;;;;;;5014925;28;20182;-85
2024/01/04 06:39:28;;;;;;;8.53;2.87;;;8.70;1.00;;;;;;5016296;28;20203;-85
2024/01/04 06:41:54;;;;;;;2.80;2.50;;;8.70;1.00;;;;;;5012782;28;20207;-84
2024/01/04 06:44:19;;;;;;;5.87;2.70;;;8.70;1.00;;;;;;5018778;28;20959;-84
2024/01/04 06:46:45;;;;;;;7.07;2.87;;;8.80;1.00;;;;;;5014353;28;20476;-85
2024/01/04 06:49:10;;;;;;;3.27;2.50;;;8.80;1.00;;;;;;5011360;28;21481;-84
2024/01/04 06:51:35;;;;;;;3.30;2.30;;;8.80;1.00;;;;;;5032115;28;20211;-86
2024/01/04 06:54:02;;;;;;;6.53;3.87;;;8.80;1.00;;;;;;5018669;28;20773;-86
2024/01/04 06:56:28;;;;;;;5.30;3.77;;;8.80;1.00;;;;;;5017169;28;20174;-86
2024/01/04 06:58:53;;;;;;;5.93;4.47;;;8.80;1.00;;;;;;5011820;28;20839;-86
2024/01/04 07:01:19;;;;;;;5.40;3.90;;;8.80;1.00;;;;;;5014307;28;20338;-85
2024/01/04 07:03:46;;;;;;;5.40;3.27;;;8.80;1.00;;;;;;5018062;28;20545;-86
2024/01/04 07:06:15;;;;;;;5.93;4.10;;;8.80;1.00;;;;;;5016116;28;20254;-88
2024/01/04 07:08:40;;;;;;;10.40;4.40;;;8.80;1.00;;;;;;5019029;28;21006;-86
2024/01/04 07:11:06;;;;;;;15.17;5.43;;;8.80;1.00;;;;;;5013612;28;20473;-86
2024/01/04 07:13:35;;;;;;;11.00;5.50;;;8.90;1.00;;;;;;5014439;28;20179;-85
2024/01/04 07:16:04;;;;;;;6.27;4.10;;;8.90;1.00;;;;;;5016085;28;20198;-86
2024/01/04 07:18:30;;;;;;;7.13;4.93;;;8.90;2.40;;;;;;5014112;28;20431;-86
2024/01/04 07:20:55;;;;;;;11.60;5.30;;;8.90;4.70;;;;;;5015691;28;20464;-86
2024/01/04 07:23:21;;;;;;;7.20;5.17;;;8.90;5.80;;;;;;5019251;28;20688;-85
2024/01/04 07:25:47;;;;;;;13.07;5.40;;;8.90;9.80;;;;;;5021629;28;20582;-87
2024/01/04 07:28:12;;;;;;;6.00;5.03;;;8.90;13.70;;;;;;5016630;28;20548;-86
2024/01/04 07:30:38;;;;;;;8.57;5.83;;;8.90;16.60;;;;;;5015013;28;20222;-86
2024/01/04 07:33:04;;;;;;;9.63;6.13;;;8.90;19.90;;;;;;5014010;28;20612;-85
2024/01/04 07:35:30;;;;;;;8.27;6.03;;;8.90;24.30;;;;;;5020369;28;20207;-85
2024/01/04 07:37:56;;;;;;;10.43;5.10;;;8.90;30.20;;;;;;5025030;28;20862;-85
2024/01/04 07:40:21;;;;;;;6.90;4.30;;;9.00;26.60;;;;;;5021241;28;20203;-86
2024/01/04 07:42:47;;;;;;;4.43;2.77;;;9.00;13.60;;;;;;5022981;28;20187;-85
2024/01/04 07:45:13;;;;;;;2.90;2.13;;;9.00;1.00;;;;;;5018959;28;20201;-85
2024/01/04 07:47:39;;;;;;;3.97;2.23;;;9.00;1.00;;;;;;5030582;28;20445;-85
2024/01/04 07:50:05;;;;;;;4.80;1.97;;;9.00;1.00;;;;;;5023953;28;20215;-85
2024/01/04 07:52:31;;;;;;;4.93;2.33;;;8.90;1.00;;;;;;5026402;28;20506;-85
2024/01/04 07:54:56;;;;;;;6.67;3.10;;;8.90;1.00;;;;;;5021414;28;20183;-84
2024/01/04 07:57:22;;;;;;;6.57;3.70;;;8.90;1.00;;;;;;5019955;28;20233;-84
2024/01/04 07:59:47;;;;;;;8.47;4.07;;;9.00;1.00;;;;;;5020041;28;20221;-84
2024/01/04 08:02:13;;;;;;;7.70;4.83;;;9.00;1.00;;;;;;5021283;28;20191;-86
2024/01/04 08:04:38;;;;;;;7.87;4.87;;;9.00;1.00;;;;;;5026090;28;20567;-84
2024/01/04 08:07:04;;;;;;;8.67;4.40;;;9.10;1.00;;;;;;5020670;28;20213;-85
2024/01/04 08:09:29;;;;;;;9.73;4.00;;;9.10;1.00;;;;;;5025830;28;20743;-83
2024/01/04 08:11:55;;;;;;;6.80;3.43;;;9.10;1.00;;;;;;5027098;28;20206;-85
2024/01/04 08:14:21;;;;;;;6.50;4.00;;;9.10;1.00;;;;;;5025851;28;20484;-87
2024/01/04 08:16:46;;;;;;;13.50;3.93;;;9.20;1.00;;;;;;5026331;28;20180;-85
2024/01/04 08:19:12;;;;;;;9.37;4.20;;;9.20;1.00;;;;;;5024247;28;20214;-85
2024/01/04 08:21:37;;;;;;;8.73;3.10;;;9.20;1.00;;;;;;5021557;28;20265;-85
2024/01/04 08:24:03;;;;;;;7.03;3.60;;;9.20;1.00;;;;;;5026002;28;20190;-85
2024/01/04 08:26:29;;;;;;;9.20;3.53;;;9.20;1.00;;;;;;5024119;28;20183;-84
2024/01/04 08:28:54;;;;;;;6.93;3.43;;;9.20;1.00;;;;;;5027607;28;20607;-85
2024/01/04 08:31:20;;;;;;;6.83;3.83;;;9.20;1.00;;;;;;5021212;28;20219;-85
2024/01/04 08:33:46;;;;;;;5.83;3.30;;;9.30;1.00;;;;;;5024266;28;20385;-85
2024/01/04 08:36:11;;;;;;;12.70;4.00;;;9.30;1.00;;;;;;5020158;28;20182;-85
2024/01/04 08:38:37;;;;;;;5.73;3.00;;;9.30;1.00;;;;;;5015942;28;20211;-86
2024/01/04 08:41:02;;;;;;;14.13;3.77;;;9.40;1.00;;;;;;5026070;28;20214;-85
2024/01/04 08:43:28;;;;;;;8.93;3.47;;;9.40;1.00;;;;;;5021058;28;20562;-85
2024/01/04 08:45:54;;;;;;;8.50;3.53;;;9.50;1.00;;;;;;5018838;28;20186;-86
2024/01/04 08:48:19;;;;;;;11.17;3.03;;;9.60;1.00;;;;;;5024636;28;20189;-85
2024/01/04 08:50:45;;;;;;;8.17;2.80;;;9.70;1.00;;;;;;5026778;28;20218;-85
2024/01/04 08:53:13;;;;;;;11.20;3.17;;;9.80;1.00;;;;;;5021860;28;20194;-85
2024/01/04 08:55:39;;;;;;;4.60;3.00;;;9.90;1.00;;;;;;5019280;28;20660;-86
2024/01/04 08:58:04;;;;;;;5.00;2.30;;;10.00;1.00;;;;;;5016377;28;20444;-86
2024/01/04 09:00:32;;;;;;;5.13;2.60;;;10.00;1.00;;;;;;5022780;28;20489;-85
2024/01/04 09:02:58;;;;;;;4.80;2.80;;;9.90;1.00;;;;;;5021720;28;20433;-86
2024/01/04 09:05:24;;;;;;;4.90;2.20;;;9.80;1.00;;;;;;5021661;28;21004;-85
2024/01/04 09:07:50;;;;;;;11.80;3.03;;;9.80;1.00;;;;;;5018907;28;20179;-86
2024/01/04 09:10:15;;;;;;;7.80;2.90;;;9.80;1.00;;;;;;5020121;28;20465;-85
2024/01/04 09:12:42;;;;;;;5.93;2.77;;;9.70;1.00;;;;;;5022935;28;20190;-85
2024/01/04 09:15:08;;;;;;;5.57;3.00;;;9.70;1.00;;;;;;5017689;28;20214;-84
2024/01/04 09:17:34;;;;;;;8.43;3.20;;;9.60;1.00;;;;;;5020958;28;20618;-85
2024/01/04 09:19:59;;;;;;;10.00;3.17;;;9.60;1.00;;;;;;5021983;28;20735;-84
2024/01/04 09:22:25;;;;;;;7.27;4.00;;;9.60;1.00;;;;;;5017756;28;20507;-84
2024/01/04 09:24:51;;;;;;;13.73;4.43;;;9.50;1.00;;;;;;5020184;28;20179;-85
2024/01/04 09:27:16;;;;;;;4.03;3.30;;;9.50;1.00;;;;;;5022422;28;20187;-84
2024/01/04 09:29:42;;;;;;;5.40;3.93;;;9.40;1.00;;;;;;5018619;28;20210;-85
2024/01/04 09:32:07;;;;;;;9.60;3.90;;;9.50;1.00;;;;;;5023566;28;20254;-85
2024/01/04 09:34:33;;;;;;;6.27;4.70;;;9.50;1.00;;;;;;5020976;28;20179;-85
2024/01/04 09:37:00;;;;;;;10.80;4.50;;;9.50;1.00;;;;;;5024418;28;20178;-86
2024/01/04 09:39:26;;;;;;;8.33;4.90;;;9.60;1.00;;;;;;5021858;28;20198;-84
2024/01/04 09:41:54;;;;;;;6.50;4.00;;;9.60;1.00;;;;;;5016941;28;20507;-85
2024/01/04 09:44:19;;;;;;;9.33;4.00;;;9.60;1.00;;;;;;5023557;28;20187;-83
2024/01/04 09:46:46;;;;;;;8.13;4.97;;;9.70;1.00;;;;;;5023268;28;21000;-83
2024/01/04 09:49:13;;;;;;;9.13;4.80;;;9.70;1.00;;;;;;5022073;28;20210;-84
2024/01/04 09:51:41;;;;;;;12.47;4.37;;;9.70;1.00;;;;;;5027189;28;20437;-84
2024/01/04 09:54:08;;;;;;;11.97;4.77;;;9.70;1.00;;;;;;5026406;28;20954;-84
2024/01/04 09:56:46;;;;;;;8.67;4.43;;;9.70;1.00;;;;;;5026112;28;20966;-85
2024/01/04 09:59:12;;;;;;;6.67;4.80;;;9.90;1.00;;;;;;5018885;28;20506;-84
2024/01/04 10:01:39;;;;;;;9.53;4.80;;;10.20;1.00;;;;;;5025645;28;20438;-84
2024/01/04 10:04:06;;;;;;;8.50;4.10;;;10.50;1.00;;;;;;5022081;28;20718;-84
2024/01/04 10:06:33;;;;;;;10.30;3.43;;;10.70;1.00;;;;;;5020013;28;20449;-83
2024/01/04 10:09:26;;;;;;;12.70;3.47;;;11.00;1.00;;;;;;5015860;28;21317;-85
2024/01/04 10:12:02;;;;;;;5.60;3.10;;;11.20;99.90;;;;;;5019809;28;20445;-84
2024/01/04 10:14:28;;;;;;;4.33;2.40;;;11.30;99.90;;;;;;5017857;28;20472;-86
2024/01/04 10:16:58;;;;;;;9.53;3.60;;;11.50;99.90;;;;;;5017878;28;20524;-85
2024/01/04 10:19:25;;;;;;;3.90;2.20;;;11.70;1.00;;;;;;5020656;28;20461;-85
2024/01/04 10:21:51;;;;;;;6.00;2.20;;;12.00;64.50;;;;;;5017419;28;20441;-86
2024/01/04 10:24:25;;;;;;;7.93;2.90;;;12.20;1.00;;;;;;5017030;28;20721;-85
2024/01/04 10:26:58;;;;;;;5.27;2.83;;;12.10;1.00;;;;;;5024243;28;20648;-85
2024/01/04 10:29:25;;;;;;;10.77;2.83;;;11.80;99.90;;;;;;5017873;28;20499;-86
2024/01/04 10:32:02;;;;;;;6.07;2.40;;;11.60;29.50;;;;;;5017437;28;20460;-86
2024/01/04 10:34:28;;;;;;;4.80;2.63;;;11.60;1.00;;;;;;5023171;28;20445;-85
2024/01/04 10:37:06;;;;;;;5.00;2.33;;;11.60;1.00;;;;;;5021749;28;20449;-85
2024/01/04 10:39:31;;;;;;;6.30;2.73;;;11.40;99.90;;;;;;5021694;28;20457;-87
2024/01/04 10:41:59;;;;;;;9.63;3.50;;;11.50;99.90;;;;;;5019593;28;20524;-84
2024/01/04 10:44:25;;;;;;;8.73;2.43;;;11.40;1.00;;;;;;5025607;28;20194;-83
2024/01/04 10:46:58;;;;;;;4.43;2.20;;;11.40;1.00;;;;;;5024713;28;20474;-82
2024/01/04 10:49:24;;;;;;;5.20;1.90;;;11.40;1.00;;;;;;5037737;28;20464;-85
2024/01/04 10:51:55;;;;;;;8.47;2.60;;;11.40;1.00;;;;;;5026197;28;20434;-85
2024/01/04 10:54:25;;;;;;;4.20;2.10;;;11.50;99.90;;;;;;5017341;28;20894;-85
2024/01/04 10:56:51;;;;;;;7.90;2.43;;;11.50;23.90;;;;;;5024249;28;20434;-84
2024/01/04 10:59:21;;;;;;;5.90;2.50;;;11.50;9.10;;;;;;5019907;28;20488;-84
2024/01/04 11:01:47;;;;;;;10.00;2.40;;;11.40;25.80;;;;;;5016533;28;20580;-83
2024/01/04 11:04:13;;;;;;;6.43;2.83;;;11.20;1.00;;;;;;5018056;28;20437;-84
2024/01/04 11:06:40;;;;;;;10.07;3.37;;;11.10;70.00;;;;;;5019202;28;20436;-86
2024/01/04 11:09:09;;;;;;;13.73;3.30;;;10.90;99.90;;;;;;5019326;28;20441;-86
2024/01/04 11:11:35;;;;;;;10.63;3.17;;;10.80;99.90;;;;;;5015674;28;20449;-85
2024/01/04 11:14:04;;;;;;;9.67;3.90;;;10.80;99.90;;;;;;5025986;28;20514;-84
2024/01/04 11:16:39;;;;;;;14.57;3.37;;;10.80;99.90;;;;;;5028109;28;20437;-85
2024/01/04 11:19:35;;;;;;;10.27;3.03;;;11.00;99.90;;;;;;5031524;28;20843;-84
2024/01/04 11:22:31;;;;;;;14.33;3.97;;;11.10;99.90;;;;;;5025896;28;20464;-84
2024/01/04 11:25:45;;;;;;;15.13;3.83;;;11.00;99.90;;;;;;5033556;28;20449;-84
2024/01/04 11:28:11;;;;;;;14.90;3.80;;;10.90;99.90;;;;;;5039346;28;20491;-85
2024/01/04 11:30:37;;;;;;;16.60;4.40;;;10.80;99.90;;;;;;5026981;28;20499;-84
2024/01/04 11:33:06;;;;;;;15.87;3.50;;;10.70;99.90;;;;;;5036416;28;20441;-86
2024/01/04 11:35:38;;;;;;;21.00;4.63;;;10.70;99.90;;;;;;5027301;28;20218;-85
2024/01/04 11:38:07;;;;;;;15.17;3.50;;;10.70;99.90;;;;;;5029997;28;20433;-83
2024/01/04 11:40:37;;;;;;;14.07;4.20;;;10.60;1.00;;;;;;5029080;28;20464;-85
2024/01/04 11:43:13;;;;;;;20.80;4.10;;;10.60;1.00;;;;;;5032215;28;20448;-85
2024/01/04 11:45:42;;;;;;;17.30;4.47;;;10.40;1.00;;;;;;5031617;28;20441;-85
2024/01/04 11:48:10;;;;;;;15.70;4.10;;;10.30;1.00;;;;;;5031736;28;20445;-84
2024/01/04 11:50:45;;;;;;;19.47;4.70;;;10.20;1.00;;;;;;5029481;28;20485;-86
2024/01/04 11:53:12;;;;;;;19.87;3.87;;;10.00;1.00;;;;;;5024753;28;20446;-84
2024/01/04 11:55:38;;;;;;;28.47;5.67;;;9.90;1.00;;;;;;5029735;28;20809;-85
2024/01/04 11:58:13;;;;;;;17.13;5.90;;;9.90;1.00;;;;;;5030975;28;20528;-85
2024/01/04 12:00:46;;;;;;;19.90;5.07;;;9.90;1.00;;;;;;5029949;28;20245;-85
2024/01/04 12:03:21;;;;;;;18.47;4.13;;;9.90;1.00;;;;;;5030015;28;20448;-84
2024/01/04 12:05:53;;;;;;;19.47;4.30;;;9.80;1.00;;;;;;5030753;28;20476;-85
2024/01/04 12:08:28;;;;;;;16.13;4.60;;;9.80;1.00;;;;;;5031707;28;20452;-85
2024/01/04 12:10:55;;;;;;;16.03;4.87;;;9.80;1.00;;;;;;5035734;28;20468;-84
2024/01/04 12:13:20;;;;;;;13.20;3.47;;;9.90;1.00;;;;;;5028841;28;20445;-85
2024/01/04 12:15:46;;;;;;;10.63;2.87;;;10.10;1.00;;;;;;5030029;28;20452;-85
2024/01/04 12:18:12;;;;;;;13.57;3.87;;;10.30;1.00;;;;;;5027085;28;20586;-85
2024/01/04 12:20:38;;;;;;;17.77;4.10;;;10.50;1.00;;;;;;5025504;28;20203;-85
2024/01/04 12:23:06;;;;;;;13.63;4.67;;;10.80;99.90;;;;;;5027385;28;20240;-85
2024/01/04 12:25:34;;;;;;;11.63;3.70;;;10.80;99.90;;;;;;5032455;28;21013;-86
2024/01/04 12:28:00;;;;;;;21.03;4.17;;;10.80;99.90;;;;;;5028018;28;20448;-85
2024/01/04 12:30:26;;;;;;;16.90;3.63;;;10.70;99.90;;;;;;5024543;28;20465;-84
2024/01/04 12:32:51;;;;;;;12.70;3.40;;;10.80;99.90;;;;;;5023875;28;20201;-84
2024/01/04 12:35:17;;;;;;;17.83;3.93;;;10.90;99.90;;;;;;5028166;28;20433;-84
2024/01/04 12:37:43;;;;;;;21.97;4.00;;;10.90;99.90;;;;;;5025793;28;20873;-83
2024/01/04 12:40:11;;;;;;;15.57;3.30;;;10.90;1.00;;;;;;5029173;28;20211;-83
2024/01/04 12:42:38;;;;;;;12.67;3.30;;;10.80;1.00;;;;;;5028375;28;20734;-83
2024/01/04 12:45:10;;;;;;;13.10;3.83;;;10.70;1.00;;;;;;5030520;28;20571;-82
2024/01/04 12:47:37;;;;;;;24.00;4.17;;;10.60;1.00;;;;;;5026832;28;20444;-83
2024/01/04 12:50:03;;;;;;;10.33;3.50;;;10.70;1.00;;;;;;5029380;28;20473;-83
2024/01/04 12:52:28;;;;;;;17.53;3.57;;;10.90;1.00;;;;;;5027443;28;20946;-83
2024/01/04 12:54:54;;;;;;;13.47;3.77;;;10.90;1.00;;;;;;5027644;28;20213;-83
2024/01/04 12:57:19;;;;;;;17.67;3.57;;;11.00;3.50;;;;;;5030476;28;20182;-84